Time;durP1;ratioP1;P1;durP2;ratioP2;P2;SDS_P1;SDS_P2;PMS_P1;PMS_P2;Temp;Humidity;BMP_temperature;BMP_pressure;BME280_temperature;BME280_humidity;BME280_pressure;Samples;Min_cycle;Max_cycle;Signal;HPM_P1;HPM_P2
2023/02/08 00:01:56;;;;;;;11.27;7.00;;;;;;;;;;5086647;28;20028;-49
2023/02/08 00:04:22;;;;;;;12.57;7.35;;;;;;;;;;5087395;28;20030;-48
2023/02/08 00:06:49;;;;;;;18.88;10.30;;;;;;;;;;5086658;28;20028;-49
2023/02/08 00:09:15;;;;;;;46.40;19.67;;;;;;;;;;5086861;28;20465;-46
2023/02/08 00:11:41;;;;;;;51.47;22.50;;;;;;;;;;5086820;28;20028;-48
2023/02/08 00:14:07;;;;;;;53.30;22.95;;;;;;;;;;5086366;28;20067;-48
2023/02/08 00:16:33;;;;;;;73.28;28.70;;;;;;;;;;5086686;28;20022;-47
2023/02/08 00:19:00;;;;;;;79.63;32.05;;;;;;;;;;5086207;28;20445;-47
2023/02/08 00:21:25;;;;;;;78.55;33.30;;;;;;;;;;5086168;28;20035;-47
2023/02/08 00:23:52;;;;;;;73.82;30.73;;;;;;;;;;5086847;28;20031;-48
2023/02/08 00:26:19;;;;;;;49.28;23.17;;;;;;;;;;5086692;28;20016;-46
2023/02/08 00:28:45;;;;;;;41.90;19.63;;;;;;;;;;5085995;28;20059;-48
2023/02/08 00:31:11;;;;;;;35.10;17.05;;;;;;;;;;5086546;28;20059;-47
2023/02/08 00:33:37;;;;;;;26.85;13.23;;;;;;;;;;5085862;28;20028;-48
2023/02/08 00:36:05;;;;;;;22.52;11.63;;;;;;;;;;5085790;28;20035;-46
2023/02/08 00:38:32;;;;;;;21.33;10.90;;;;;;;;;;5086284;28;20032;-48
2023/02/08 00:40:59;;;;;;;17.88;10.05;;;;;;;;;;5085858;28;20024;-47
2023/02/08 00:43:25;;;;;;;14.68;8.40;;;;;;;;;;5086856;28;20024;-47
2023/02/08 00:45:58;;;;;;;15.73;7.90;;;;;;;;;;5086428;28;20024;-48
2023/02/08 00:48:24;;;;;;;13.40;7.82;;;;;;;;;;5068091;28;20023;-48
2023/02/08 00:50:57;;;;;;;12.75;7.75;;;;;;;;;;5085662;28;20491;-47
2023/02/08 00:53:23;;;;;;;11.88;6.68;;;;;;;;;;5086830;28;20036;-50
2023/02/08 00:55:53;;;;;;;13.27;7.40;;;;;;;;;;5085705;28;20503;-47
2023/02/08 00:58:19;;;;;;;11.00;6.47;;;;;;;;;;5086103;28;20028;-52
2023/02/08 01:00:45;;;;;;;10.25;6.20;;;;;;;;;;5085714;28;20016;-46
2023/02/08 01:03:12;;;;;;;10.07;6.50;;;;;;;;;;5085132;28;20055;-47
2023/02/08 06:12:50;;;;;;;16.58;9.60;;;;;;;;;;5079898;28;20479;-46
2023/02/08 06:15:16;;;;;;;10.65;7.57;;;;;;;;;;5104050;28;20046;-51
2023/02/08 06:17:42;;;;;;;12.90;8.07;;;;;;;;;;5102337;28;20027;-48
2023/02/08 06:20:08;;;;;;;12.95;8.02;;;;;;;;;;5069915;28;20082;-47
2023/02/08 06:22:34;;;;;;;15.73;8.45;;;;;;;;;;5088441;28;20027;-49
2023/02/08 06:25:00;;;;;;;14.07;8.07;;;;;;;;;;5084883;28;20393;-47
2023/02/08 06:27:27;;;;;;;14.15;8.27;;;;;;;;;;5088397;28;20479;-47
2023/02/08 06:29:53;;;;;;;12.48;8.27;;;;;;;;;;5088573;28;20026;-48
2023/02/08 06:32:19;;;;;;;13.43;7.90;;;;;;;;;;5088421;28;20059;-48
2023/02/08 06:34:47;;;;;;;11.73;7.63;;;;;;;;;;5088406;28;20396;-51
2023/02/08 06:37:13;;;;;;;14.75;8.73;;;;;;;;;;5088347;28;20074;-48
2023/02/08 06:39:39;;;;;;;12.70;8.30;;;;;;;;;;5088860;28;20493;-48
2023/02/08 06:42:05;;;;;;;15.13;9.07;;;;;;;;;;5088183;28;20384;-47
2023/02/08 06:44:31;;;;;;;20.55;10.55;;;;;;;;;;5088539;28;21135;-47
2023/02/08 06:46:57;;;;;;;16.30;9.10;;;;;;;;;;5088318;28;20091;-47
2023/02/08 06:49:23;;;;;;;16.98;10.02;;;;;;;;;;5088531;28;20028;-47
2023/02/08 06:51:49;;;;;;;14.95;8.95;;;;;;;;;;5088310;28;20036;-48
2023/02/08 06:54:15;;;;;;;21.90;10.98;;;;;;;;;;5087734;28;20024;-47
2023/02/08 06:56:41;;;;;;;16.45;10.52;;;;;;;;;;5088070;28;20043;-48
2023/02/08 06:59:07;;;;;;;18.70;11.05;;;;;;;;;;5088540;28;20027;-48
2023/02/08 07:01:33;;;;;;;17.45;10.80;;;;;;;;;;5084693;28;20058;-48
2023/02/08 07:03:59;;;;;;;16.55;10.48;;;;;;;;;;5070236;28;20426;-50
2023/02/08 07:06:26;;;;;;;15.95;9.90;;;;;;;;;;5089191;28;20427;-47
2023/02/08 07:08:52;;;;;;;16.85;9.63;;;;;;;;;;5089294;28;20024;-48
2023/02/08 07:11:19;;;;;;;15.90;9.30;;;;;;;;;;5081338;28;20124;-48
2023/02/08 07:13:51;;;;;;;15.13;8.98;;;;;;;;;;5077061;28;20135;-48
2023/02/08 07:16:18;;;;;;;14.77;8.52;;;;;;;;;;5080620;28;20123;-47
2023/02/08 07:18:45;;;;;;;15.55;8.95;;;;;;;;;;5087656;28;20382;-47
2023/02/08 07:21:11;;;;;;;15.45;8.85;;;;;;;;;;5086413;28;20071;-48
2023/02/08 07:23:38;;;;;;;14.50;8.90;;;;;;;;;;5087803;28;20472;-48
2023/02/08 07:26:06;;;;;;;17.60;9.20;;;;;;;;;;5085831;28;20499;-47
2023/02/08 07:28:32;;;;;;;13.57;8.57;;;;;;;;;;5086228;28;20490;-47
2023/02/08 07:30:58;;;;;;;15.50;9.00;;;;;;;;;;5088333;28;20077;-49
2023/02/08 07:33:24;;;;;;;16.88;9.32;;;;;;;;;;5090211;28;20040;-47
2023/02/08 07:35:50;;;;;;;16.00;9.43;;;;;;;;;;5082061;28;20028;-48
2023/02/08 07:38:17;;;;;;;16.00;9.90;;;;;;;;;;5090066;28;20032;-46
2023/02/08 07:40:43;;;;;;;16.88;10.65;;;;;;;;;;5090142;28;20020;-48
2023/02/08 07:43:09;;;;;;;19.80;11.50;;;;;;;;;;5089508;28;20034;-47
2023/02/08 07:45:38;;;;;;;19.48;11.77;;;;;;;;;;5089971;28;20029;-49
2023/02/08 07:48:04;;;;;;;23.98;12.48;;;;;;;;;;5090028;28;20116;-47
2023/02/08 07:50:30;;;;;;;19.45;12.23;;;;;;;;;;5078620;28;20021;-47
2023/02/08 07:52:56;;;;;;;22.90;13.02;;;;;;;;;;5089642;28;20024;-47
2023/02/08 07:55:22;;;;;;;19.20;12.07;;;;;;;;;;5091268;28;20502;-46
2023/02/08 07:57:49;;;;;;;20.50;12.27;;;;;;;;;;5090942;28;20032;-48
2023/02/08 08:00:15;;;;;;;17.60;11.02;;;;;;;;;;5091340;28;20024;-48
2023/02/08 08:02:42;;;;;;;19.80;12.50;;;;;;;;;;5091209;28;20043;-47
2023/02/08 08:05:08;;;;;;;19.60;11.63;;;;;;;;;;5091669;28;20403;-46
2023/02/08 08:07:35;;;;;;;18.17;11.63;;;;;;;;;;5091009;28;20028;-47
2023/02/08 08:10:01;;;;;;;19.63;12.18;;;;;;;;;;5068436;28;20038;-48
2023/02/08 08:12:27;;;;;;;23.63;13.10;;;;;;;;;;5105070;28;20090;-47
2023/02/08 08:14:53;;;;;;;22.88;13.02;;;;;;;;;;5111034;28;20122;-51
2023/02/08 08:17:19;;;;;;;25.52;13.77;;;;;;;;;;5111335;28;20031;-50
2023/02/08 08:19:45;;;;;;;23.48;13.85;;;;;;;;;;5111306;28;20722;-46
2023/02/08 08:22:11;;;;;;;21.88;13.15;;;;;;;;;;5111254;28;20027;-50
2023/02/08 08:24:37;;;;;;;21.63;12.48;;;;;;;;;;5111628;28;20421;-47
2023/02/08 08:27:07;;;;;;;19.00;11.88;;;;;;;;;;5095114;28;20028;-46
2023/02/08 08:29:35;;;;;;;20.15;11.63;;;;;;;;;;5090816;28;20078;-47
2023/02/08 08:32:02;;;;;;;18.05;11.45;;;;;;;;;;5090578;28;20089;-48
2023/02/08 08:34:30;;;;;;;18.02;11.07;;;;;;;;;;5089197;28;20027;-47
2023/02/08 08:37:00;;;;;;;16.20;9.98;;;;;;;;;;5083655;28;20025;-48
2023/02/08 08:39:27;;;;;;;17.92;10.85;;;;;;;;;;5084797;28;20020;-47
2023/02/08 08:41:53;;;;;;;17.00;10.70;;;;;;;;;;5087391;28;20039;-48
2023/02/08 08:44:20;;;;;;;16.48;10.45;;;;;;;;;;5088300;28;20510;-50
2023/02/08 08:46:46;;;;;;;18.65;11.27;;;;;;;;;;5088817;28;20036;-47
2023/02/08 08:49:12;;;;;;;17.25;10.55;;;;;;;;;;5088929;28;20470;-49
2023/02/08 08:51:38;;;;;;;16.15;10.10;;;;;;;;;;5089480;28;20032;-47
2023/02/08 08:54:05;;;;;;;15.75;9.38;;;;;;;;;;5088781;28;20028;-47
2023/02/08 08:56:32;;;;;;;13.43;8.50;;;;;;;;;;5088861;28;20032;-46
2023/02/08 08:58:58;;;;;;;14.82;9.60;;;;;;;;;;5088373;28;20024;-47
2023/02/08 09:01:24;;;;;;;15.98;9.02;;;;;;;;;;5088621;28;20024;-47
2023/02/08 09:03:50;;;;;;;15.73;9.60;;;;;;;;;;5080120;28;20016;-47
2023/02/08 09:06:16;;;;;;;13.73;9.15;;;;;;;;;;5088671;28;20020;-46
2023/02/08 09:08:42;;;;;;;15.60;9.85;;;;;;;;;;5084985;28;20024;-49
2023/02/08 09:11:13;;;;;;;15.63;9.80;;;;;;;;;;5089986;28;20032;-47
2023/02/08 09:13:40;;;;;;;17.33;9.93;;;;;;;;;;5089272;28;20032;-47
2023/02/08 09:16:11;;;;;;;17.48;10.52;;;;;;;;;;5088682;28;20135;-47
2023/02/08 09:18:38;;;;;;;17.92;11.10;;;;;;;;;;5088705;28;20537;-48
2023/02/08 09:21:07;;;;;;;17.60;10.27;;;;;;;;;;5087971;28;20483;-47
2023/02/08 09:23:33;;;;;;;17.80;10.68;;;;;;;;;;5088047;28;20433;-47
2023/02/08 09:26:01;;;;;;;17.98;10.55;;;;;;;;;;5088469;28;20042;-46
2023/02/08 09:28:27;;;;;;;18.20;10.77;;;;;;;;;;5088022;28;20548;-47
2023/02/08 09:30:53;;;;;;;16.70;10.73;;;;;;;;;;5088000;28;20135;-49
2023/02/08 09:33:19;;;;;;;19.85;11.18;;;;;;;;;;5088575;28;20024;-47
2023/02/08 09:35:45;;;;;;;17.17;10.20;;;;;;;;;;5087893;28;20032;-50
2023/02/08 09:38:12;;;;;;;15.43;10.07;;;;;;;;;;5088071;28;20499;-50
2023/02/08 09:40:46;;;;;;;18.35;10.48;;;;;;;;;;5088322;28;20052;-48
2023/02/08 09:43:34;;;;;;;16.38;10.18;;;;;;;;;;5087604;28;20016;-48
2023/02/08 09:46:02;;;;;;;19.75;10.55;;;;;;;;;;5056278;28;20146;-50
2023/02/08 09:48:34;;;;;;;17.15;9.55;;;;;;;;;;5087688;28;20136;-48
2023/02/08 09:51:03;;;;;;;15.30;9.20;;;;;;;;;;5087780;28;20035;-48
2023/02/08 09:53:43;;;;;;;15.18;9.05;;;;;;;;;;5103127;28;20595;-47
2023/02/08 09:56:13;;;;;;;14.18;8.75;;;;;;;;;;5088177;28;20027;-48
2023/02/08 09:58:42;;;;;;;13.23;7.60;;;;;;;;;;5088148;28;20050;-47
2023/02/08 10:01:13;;;;;;;11.85;7.15;;;;;;;;;;5087860;28;20028;-49
2023/02/08 10:03:43;;;;;;;12.80;7.25;;;;;;;;;;5087634;28;20110;-48
2023/02/08 10:06:11;;;;;;;10.48;6.82;;;;;;;;;;5087729;28;20491;-48
2023/02/08 10:08:37;;;;;;;9.88;6.75;;;;;;;;;;5087605;28;20038;-48
2023/02/08 10:11:07;;;;;;;11.90;7.22;;;;;;;;;;5087183;28;20506;-48
2023/02/08 10:13:57;;;;;;;14.23;7.47;;;;;;;;;;5086893;28;20406;-49
2023/02/08 10:16:29;;;;;;;10.45;7.00;;;;;;;;;;5087449;28;20040;-48
2023/02/08 10:18:59;;;;;;;10.50;6.95;;;;;;;;;;5087112;28;20032;-48
2023/02/08 10:21:34;;;;;;;10.95;7.18;;;;;;;;;;5087218;28;20024;-51
2023/02/08 10:24:22;;;;;;;12.85;7.50;;;;;;;;;;5087162;28;20108;-49
2023/02/08 10:27:10;;;;;;;10.27;6.78;;;;;;;;;;5048696;28;20062;-48
2023/02/08 10:29:50;;;;;;;10.38;7.03;;;;;;;;;;5087865;28;20290;-47
2023/02/08 10:32:35;;;;;;;10.75;6.95;;;;;;;;;;5102611;28;20024;-48
2023/02/08 10:35:09;;;;;;;11.98;7.20;;;;;;;;;;5087019;28;20035;-47
2023/02/08 10:37:37;;;;;;;10.17;6.97;;;;;;;;;;5087477;28;20508;-48
2023/02/08 10:40:24;;;;;;;11.10;7.30;;;;;;;;;;5086969;28;20261;-47
2023/02/08 10:42:54;;;;;;;11.07;7.18;;;;;;;;;;5048785;28;20483;-47
2023/02/08 10:45:37;;;;;;;11.80;7.90;;;;;;;;;;5087051;28;20032;-47
2023/02/08 10:48:10;;;;;;;11.55;7.35;;;;;;;;;;5087108;28;20069;-48
2023/02/08 10:50:38;;;;;;;10.90;7.03;;;;;;;;;;5087551;28;20499;-48
2023/02/08 10:53:04;;;;;;;9.88;6.95;;;;;;;;;;5102356;28;20460;-48
2023/02/08 10:55:31;;;;;;;11.57;7.63;;;;;;;;;;5087033;28;20119;-48
2023/02/08 10:58:00;;;;;;;10.50;7.40;;;;;;;;;;5086641;28;20096;-50
2023/02/08 11:00:28;;;;;;;12.63;8.40;;;;;;;;;;5086702;28;20043;-48
2023/02/08 11:02:55;;;;;;;12.57;8.13;;;;;;;;;;5086633;28;20026;-47
2023/02/08 11:05:31;;;;;;;11.98;7.05;;;;;;;;;;5088347;28;20047;-47
2023/02/08 11:08:09;;;;;;;9.82;7.07;;;;;;;;;;5091176;28;20052;-50
2023/02/08 11:10:36;;;;;;;11.60;7.20;;;;;;;;;;5090338;28;20016;-47
2023/02/08 11:13:05;;;;;;;12.18;7.28;;;;;;;;;;5090198;28;20097;-48
2023/02/08 11:15:39;;;;;;;11.07;7.30;;;;;;;;;;5091088;28;20027;-52
2023/02/08 11:18:06;;;;;;;9.95;6.55;;;;;;;;;;5073847;28;20016;-48
2023/02/08 11:20:35;;;;;;;9.48;6.50;;;;;;;;;;5090383;28;20020;-52
2023/02/08 11:23:02;;;;;;;9.25;6.35;;;;;;;;;;5102321;28;20024;-50
2023/02/08 11:25:37;;;;;;;9.65;6.55;;;;;;;;;;5078921;28;20047;-50
2023/02/08 11:28:04;;;;;;;8.77;5.82;;;;;;;;;;5086179;28;20062;-51
2023/02/08 11:30:32;;;;;;;11.15;6.97;;;;;;;;;;5090184;28;20336;-52
2023/02/08 11:33:13;;;;;;;9.40;6.30;;;;;;;;;;5091602;28;20028;-51
2023/02/08 11:35:40;;;;;;;10.70;6.70;;;;;;;;;;5091932;28;20020;-47
2023/02/08 11:38:06;;;;;;;8.63;6.22;;;;;;;;;;5073615;28;20435;-50
2023/02/08 11:40:36;;;;;;;10.23;6.82;;;;;;;;;;5091025;28;20051;-51
2023/02/08 11:43:04;;;;;;;9.77;6.35;;;;;;;;;;5091357;28;20073;-48
2023/02/08 11:45:31;;;;;;;11.15;6.85;;;;;;;;;;5091213;28;20024;-47
2023/02/08 11:47:58;;;;;;;12.38;7.65;;;;;;;;;;5091592;28;20085;-50
2023/02/08 11:50:31;;;;;;;11.30;7.38;;;;;;;;;;5091406;28;20051;-48
2023/02/08 11:52:59;;;;;;;11.63;7.45;;;;;;;;;;5091053;28;20069;-47
2023/02/08 11:55:26;;;;;;;10.52;7.45;;;;;;;;;;5090776;28;20475;-51
2023/02/08 11:57:53;;;;;;;12.85;7.90;;;;;;;;;;5090800;28;20024;-52
2023/02/08 12:00:25;;;;;;;10.90;7.15;;;;;;;;;;5089020;28;20036;-52
2023/02/08 12:02:53;;;;;;;10.32;7.18;;;;;;;;;;5089366;28;20028;-48
2023/02/08 12:05:24;;;;;;;10.52;6.95;;;;;;;;;;5089219;28;20420;-50
2023/02/08 12:08:09;;;;;;;11.27;7.80;;;;;;;;;;5089652;28;20080;-50
2023/02/08 12:10:44;;;;;;;11.82;8.02;;;;;;;;;;5089904;28;20149;-48
2023/02/08 12:13:17;;;;;;;12.15;8.23;;;;;;;;;;5091355;28;20031;-51
2023/02/08 12:15:51;;;;;;;12.18;8.13;;;;;;;;;;5090141;28;20073;-48
2023/02/08 12:18:20;;;;;;;11.32;7.50;;;;;;;;;;5090433;28;20100;-51
2023/02/08 12:20:47;;;;;;;10.43;7.10;;;;;;;;;;5090496;28;20028;-50
2023/02/08 12:23:13;;;;;;;9.32;6.75;;;;;;;;;;5090547;28;20028;-51
2023/02/08 12:25:44;;;;;;;9.65;6.63;;;;;;;;;;5090945;28;20032;-50
2023/02/08 12:28:22;;;;;;;8.55;6.38;;;;;;;;;;5090571;28;20020;-51
2023/02/08 12:30:56;;;;;;;8.68;6.22;;;;;;;;;;5088266;28;20025;-52
2023/02/08 12:33:28;;;;;;;9.00;5.97;;;;;;;;;;5090425;28;20402;-50
2023/02/08 12:36:12;;;;;;;8.85;6.05;;;;;;;;;;5090118;28;20027;-51
2023/02/08 12:41:23;;;;;;;;;;;;;;;;;;5090498;28;20061;-49
2023/02/08 12:43:57;;;;;;;9.18;6.43;;;;;;;;;;5088587;28;20387;-49
2023/02/08 12:46:43;;;;;;;9.90;6.43;;;;;;;;;;5090299;28;20443;-50
2023/02/08 12:49:28;;;;;;;9.18;6.50;;;;;;;;;;5090414;28;20670;-50
2023/02/08 12:51:55;;;;;;;10.57;7.38;;;;;;;;;;5089217;28;20036;-51
2023/02/08 12:54:30;;;;;;;10.48;7.00;;;;;;;;;;5089079;28;20029;-52
2023/02/08 12:56:57;;;;;;;9.23;6.53;;;;;;;;;;5088681;28;20034;-50
2023/02/08 12:59:26;;;;;;;9.13;6.30;;;;;;;;;;5088613;28;20410;-51
2023/02/08 13:01:56;;;;;;;9.30;5.78;;;;;;;;;;5088547;28;20127;-52
2023/02/08 13:04:26;;;;;;;7.38;5.15;;;;;;;;;;5088661;28;20027;-48
2023/02/08 13:06:55;;;;;;;6.82;4.90;;;;;;;;;;5088339;28;20477;-51
2023/02/08 13:09:35;;;;;;;7.38;5.22;;;;;;;;;;5088772;28;20035;-50
2023/02/08 13:12:04;;;;;;;7.88;5.32;;;;;;;;;;5088384;28;20533;-52
2023/02/08 13:14:33;;;;;;;9.60;6.65;;;;;;;;;;5088541;28;20494;-52
2023/02/08 13:17:04;;;;;;;8.32;6.03;;;;;;;;;;5088692;28;20032;-50
2023/02/08 13:19:50;;;;;;;7.65;5.22;;;;;;;;;;5088503;28;20445;-48
2023/02/08 13:22:17;;;;;;;6.25;4.45;;;;;;;;;;5088120;28;20036;-50
2023/02/08 13:24:44;;;;;;;5.20;3.97;;;;;;;;;;5088217;28;20410;-53
2023/02/08 13:27:17;;;;;;;6.10;4.38;;;;;;;;;;5088347;28;20032;-49
2023/02/08 13:29:47;;;;;;;12.10;6.57;;;;;;;;;;5088122;28;20050;-51
2023/02/08 13:32:16;;;;;;;11.40;6.97;;;;;;;;;;5088110;28;20039;-51
2023/02/08 13:34:45;;;;;;;10.20;6.35;;;;;;;;;;5088106;28;20456;-50
2023/02/08 13:37:19;;;;;;;9.13;5.70;;;;;;;;;;5088174;28;20036;-52
2023/02/08 13:39:46;;;;;;;9.20;5.35;;;;;;;;;;5087942;28;20103;-51
2023/02/08 13:42:27;;;;;;;6.15;4.15;;;;;;;;;;5087377;28;20486;-52
2023/02/08 13:44:55;;;;;;;4.53;3.30;;;;;;;;;;5088164;28;20032;-51
2023/02/08 13:47:27;;;;;;;4.47;3.22;;;;;;;;;;5088175;28;20584;-50
2023/02/08 13:49:55;;;;;;;5.05;3.83;;;;;;;;;;5087811;28;20024;-53
2023/02/08 13:52:33;;;;;;;4.57;3.75;;;;;;;;;;5087456;28;20500;-49
2023/02/08 13:55:17;;;;;;;9.55;3.83;;;;;;;;;;5087437;28;20108;-51
2023/02/08 13:57:51;;;;;;;5.05;3.40;;;;;;;;;;5087194;28;20125;-53
2023/02/08 14:00:27;;;;;;;4.78;3.33;;;;;;;;;;5088175;28;20028;-52
2023/02/08 14:02:59;;;;;;;6.97;4.88;;;;;;;;;;5088412;28;20036;-50
2023/02/08 14:05:31;;;;;;;4.75;3.30;;;;;;;;;;5089193;28;20016;-51
2023/02/08 14:07:58;;;;;;;4.80;3.08;;;;;;;;;;5087028;28;20055;-49
2023/02/08 14:10:30;;;;;;;5.95;3.60;;;;;;;;;;5083206;28;20035;-51
2023/02/08 14:12:56;;;;;;;3.65;2.53;;;;;;;;;;5077207;28;20102;-51
2023/02/08 14:15:27;;;;;;;4.75;3.13;;;;;;;;;;5079251;28;20443;-49
2023/02/08 14:17:54;;;;;;;5.53;3.47;;;;;;;;;;5075363;28;20523;-51
2023/02/08 14:20:25;;;;;;;5.22;3.45;;;;;;;;;;5086171;28;20391;-51
2023/02/08 14:22:52;;;;;;;4.72;2.92;;;;;;;;;;5078530;28;20181;-51
2023/02/08 14:25:27;;;;;;;4.22;3.35;;;;;;;;;;5086760;28;20024;-51
2023/02/08 14:27:55;;;;;;;3.58;2.58;;;;;;;;;;5086874;28;20028;-48
2023/02/08 14:30:21;;;;;;;3.95;3.08;;;;;;;;;;5085127;28;20058;-49
2023/02/08 14:32:49;;;;;;;3.83;2.60;;;;;;;;;;5085561;28;20047;-50
2023/02/08 14:35:17;;;;;;;4.10;2.97;;;;;;;;;;5086160;28;21490;-51
2023/02/08 14:37:43;;;;;;;3.88;2.88;;;;;;;;;;5085768;28;20457;-49
2023/02/08 14:40:22;;;;;;;5.47;2.63;;;;;;;;;;5084642;28;20411;-48
2023/02/08 14:43:07;;;;;;;3.25;2.25;;;;;;;;;;5086262;28;20119;-52
2023/02/08 14:45:35;;;;;;;4.10;3.08;;;;;;;;;;5087165;28;20027;-49
2023/02/08 14:48:21;;;;;;;4.05;2.55;;;;;;;;;;5087579;28;20060;-51
2023/02/08 14:51:10;;;;;;;5.00;2.90;;;;;;;;;;5085849;28;20028;-49
2023/02/08 14:53:43;;;;;;;5.40;2.80;;;;;;;;;;5076637;28;20115;-50
2023/02/08 14:56:09;;;;;;;4.03;2.58;;;;;;;;;;5086578;28;20495;-49
2023/02/08 14:58:37;;;;;;;3.47;2.70;;;;;;;;;;5087714;28;20055;-52
2023/02/08 15:01:07;;;;;;;3.42;2.30;;;;;;;;;;5080827;28;20032;-52
2023/02/08 15:03:34;;;;;;;5.20;2.55;;;;;;;;;;5078238;28;20388;-50
2023/02/08 15:06:18;;;;;;;3.28;2.25;;;;;;;;;;5085923;28;20513;-51
2023/02/08 15:08:51;;;;;;;3.72;2.42;;;;;;;;;;5065981;28;20115;-52
2023/02/08 15:11:20;;;;;;;3.83;2.60;;;;;;;;;;5086853;28;20028;-52
2023/02/08 15:13:49;;;;;;;2.75;2.20;;;;;;;;;;5087167;28;20038;-49
2023/02/08 15:16:15;;;;;;;3.67;2.47;;;;;;;;;;5085893;28;20042;-50
2023/02/08 15:18:45;;;;;;;4.53;2.63;;;;;;;;;;5086127;28;20055;-49
2023/02/08 15:21:18;;;;;;;4.85;2.33;;;;;;;;;;5080228;28;20032;-50
2023/02/08 15:24:06;;;;;;;4.30;2.67;;;;;;;;;;5082493;28;20402;-51
2023/02/08 15:26:33;;;;;;;3.83;2.63;;;;;;;;;;5076800;28;20078;-51
2023/02/08 15:28:59;;;;;;;2.40;2.05;;;;;;;;;;5086388;28;20027;-50
2023/02/08 15:31:32;;;;;;;3.70;2.30;;;;;;;;;;5086447;28;20063;-52
2023/02/08 15:34:00;;;;;;;2.92;2.08;;;;;;;;;;5086535;28;20415;-53
2023/02/08 15:36:33;;;;;;;3.80;2.20;;;;;;;;;;5086860;28;20107;-52
2023/02/08 15:39:09;;;;;;;3.87;2.50;;;;;;;;;;5082951;28;20028;-52
2023/02/08 15:41:35;;;;;;;3.17;2.10;;;;;;;;;;5069895;28;20411;-49
2023/02/08 15:44:21;;;;;;;2.80;2.17;;;;;;;;;;5086332;28;20025;-50
2023/02/08 15:46:50;;;;;;;3.47;2.15;;;;;;;;;;5080520;28;20024;-52
2023/02/08 15:49:17;;;;;;;2.92;2.00;;;;;;;;;;5086865;28;20024;-52
2023/02/08 15:51:44;;;;;;;2.95;1.80;;;;;;;;;;5089082;28;20035;-50
2023/02/08 15:54:15;;;;;;;2.78;1.88;;;;;;;;;;5090355;28;20028;-53
2023/02/08 15:56:46;;;;;;;3.80;2.50;;;;;;;;;;5090852;28;20047;-53
2023/02/08 15:59:19;;;;;;;3.45;2.17;;;;;;;;;;5087138;28;20059;-53
2023/02/08 16:01:48;;;;;;;4.78;2.15;;;;;;;;;;5089891;28;20044;-53
2023/02/08 16:04:15;;;;;;;2.60;1.85;;;;;;;;;;5088310;28;20097;-50
2023/02/08 16:06:52;;;;;;;2.95;1.80;;;;;;;;;;5080439;28;20391;-51
2023/02/08 16:09:25;;;;;;;1.95;1.73;;;;;;;;;;5086453;28;20375;-50
2023/02/08 16:11:52;;;;;;;2.00;1.65;;;;;;;;;;5085077;28;20035;-51
2023/02/08 16:14:19;;;;;;;3.08;1.75;;;;;;;;;;5072869;28;20032;-53
2023/02/08 16:16:50;;;;;;;3.08;1.90;;;;;;;;;;5084011;28;20032;-52
2023/02/08 16:19:25;;;;;;;3.40;2.03;;;;;;;;;;5084612;28;20024;-54
2023/02/08 16:21:52;;;;;;;3.22;2.03;;;;;;;;;;5086380;28;20414;-52
2023/02/08 16:24:23;;;;;;;2.35;1.90;;;;;;;;;;5079166;28;20032;-53
2023/02/08 16:26:57;;;;;;;3.45;2.33;;;;;;;;;;5082380;28;20035;-53
2023/02/08 16:29:28;;;;;;;3.00;2.50;;;;;;;;;;5059783;28;20024;-50
2023/02/08 16:32:02;;;;;;;5.57;2.90;;;;;;;;;;5084063;28;20104;-52
2023/02/08 16:34:30;;;;;;;5.70;3.45;;;;;;;;;;5082666;28;20443;-53
2023/02/08 16:36:58;;;;;;;5.32;3.42;;;;;;;;;;5084240;28;20925;-53
2023/02/08 16:39:38;;;;;;;6.53;3.38;;;;;;;;;;5084675;28;20087;-52
2023/02/08 16:42:06;;;;;;;6.25;4.00;;;;;;;;;;5084808;28;20032;-52
2023/02/08 16:44:34;;;;;;;5.30;3.40;;;;;;;;;;5088193;28;20091;-51
2023/02/08 16:47:00;;;;;;;6.72;3.47;;;;;;;;;;5089640;28;20027;-48
2023/02/08 16:49:27;;;;;;;4.68;3.17;;;;;;;;;;5089682;28;20048;-53
2023/02/08 16:51:57;;;;;;;5.72;3.47;;;;;;;;;;5088641;28;20043;-52
2023/02/08 16:54:24;;;;;;;4.50;3.22;;;;;;;;;;5089180;28;20050;-49
2023/02/08 16:56:54;;;;;;;4.57;3.22;;;;;;;;;;5091040;28;20031;-51
2023/02/08 16:59:21;;;;;;;5.93;3.45;;;;;;;;;;5089745;28;20047;-49
2023/02/08 17:01:48;;;;;;;5.47;3.40;;;;;;;;;;5088446;28;20035;-49
2023/02/08 17:04:14;;;;;;;6.38;3.60;;;;;;;;;;5088547;28;20034;-50
2023/02/08 17:06:41;;;;;;;5.45;3.47;;;;;;;;;;5088322;28;20024;-51
2023/02/08 17:09:08;;;;;;;4.53;3.08;;;;;;;;;;5088271;28;20066;-49
2023/02/08 17:11:35;;;;;;;6.25;3.70;;;;;;;;;;5088242;28;20032;-48
2023/02/08 17:14:01;;;;;;;5.13;3.50;;;;;;;;;;5087827;28;20032;-49
2023/02/08 17:16:28;;;;;;;4.25;3.03;;;;;;;;;;5080476;28;20539;-48
2023/02/08 17:18:55;;;;;;;6.28;3.85;;;;;;;;;;5087804;28;20112;-52
2023/02/08 17:21:21;;;;;;;5.78;3.78;;;;;;;;;;5087158;28;20036;-51
2023/02/08 17:23:48;;;;;;;7.60;4.70;;;;;;;;;;5084745;28;20036;-49
2023/02/08 17:26:26;;;;;;;8.00;4.82;;;;;;;;;;5087905;28;20495;-49
2023/02/08 17:28:52;;;;;;;9.00;4.95;;;;;;;;;;5086887;28;20427;-48
2023/02/08 17:31:18;;;;;;;7.25;4.53;;;;;;;;;;5079114;28;20039;-50
2023/02/08 17:33:44;;;;;;;7.47;4.20;;;;;;;;;;5083559;28;20422;-51
2023/02/08 17:36:12;;;;;;;7.40;4.28;;;;;;;;;;5078730;28;20161;-48
2023/02/08 17:38:39;;;;;;;6.60;3.75;;;;;;;;;;5085370;28;20035;-48
2023/02/08 17:41:20;;;;;;;6.57;4.03;;;;;;;;;;5085814;28;20020;-48
2023/02/08 17:43:53;;;;;;;8.88;4.20;;;;;;;;;;5087793;28;20506;-51
2023/02/08 17:46:22;;;;;;;7.63;4.55;;;;;;;;;;5085077;28;20028;-49
2023/02/08 17:48:49;;;;;;;8.60;4.20;;;;;;;;;;5061006;28;20047;-48
2023/02/08 17:51:16;;;;;;;8.00;4.25;;;;;;;;;;5083808;28;20034;-51
2023/02/08 17:53:42;;;;;;;6.70;3.85;;;;;;;;;;5084892;28;20043;-50
2023/02/08 17:56:16;;;;;;;7.18;4.20;;;;;;;;;;5080304;28;20020;-47
2023/02/08 17:58:44;;;;;;;8.52;4.63;;;;;;;;;;5084640;28;20498;-49
2023/02/08 18:01:16;;;;;;;7.80;4.88;;;;;;;;;;5079007;28;20434;-47
2023/02/08 18:03:43;;;;;;;8.95;5.28;;;;;;;;;;5066490;28;20039;-49
2023/02/08 18:06:09;;;;;;;8.25;5.07;;;;;;;;;;5081859;28;20550;-46
2023/02/08 18:08:37;;;;;;;7.13;4.75;;;;;;;;;;5083629;28;20523;-47
2023/02/08 18:11:05;;;;;;;7.53;4.60;;;;;;;;;;5073456;28;20213;-51
2023/02/08 18:13:31;;;;;;;7.47;4.40;;;;;;;;;;5081405;28;20089;-49
2023/02/08 18:15:57;;;;;;;6.95;4.35;;;;;;;;;;5092315;28;20031;-49
2023/02/08 18:18:26;;;;;;;7.45;4.60;;;;;;;;;;5085079;28;20031;-47
2023/02/08 18:20:52;;;;;;;7.60;4.78;;;;;;;;;;5084305;28;20542;-47
2023/02/08 18:23:19;;;;;;;7.25;4.85;;;;;;;;;;5083317;28;20098;-47
2023/02/08 18:25:45;;;;;;;9.23;5.57;;;;;;;;;;5066312;28;20081;-47
2023/02/08 18:28:13;;;;;;;7.75;4.93;;;;;;;;;;5083596;28;20107;-48
2023/02/08 18:30:41;;;;;;;7.70;4.75;;;;;;;;;;5084205;28;20386;-47
2023/02/08 18:33:09;;;;;;;14.30;6.82;;;;;;;;;;5083537;28;20036;-50
2023/02/08 18:35:36;;;;;;;13.57;6.97;;;;;;;;;;5084377;28;20044;-46
2023/02/08 18:38:03;;;;;;;13.88;7.18;;;;;;;;;;5064532;28;20116;-47
2023/02/08 18:40:29;;;;;;;13.35;7.00;;;;;;;;;;5083291;28;20717;-51
2023/02/08 18:42:56;;;;;;;13.05;6.78;;;;;;;;;;5064995;28;20695;-50
2023/02/08 18:45:22;;;;;;;12.65;7.00;;;;;;;;;;5066907;28;20028;-52
2023/02/08 18:47:48;;;;;;;11.43;6.63;;;;;;;;;;5082994;28;20103;-51
2023/02/08 18:50:14;;;;;;;12.77;6.28;;;;;;;;;;5064598;28;20428;-49
2023/02/08 18:52:40;;;;;;;9.50;5.40;;;;;;;;;;5080266;28;20134;-50
2023/02/08 18:55:06;;;;;;;8.80;4.90;;;;;;;;;;5083273;28;20519;-50
2023/02/08 18:57:37;;;;;;;8.20;4.70;;;;;;;;;;5063699;28;20406;-48
2023/02/08 19:00:03;;;;;;;9.50;4.78;;;;;;;;;;5084879;28;20095;-48
2023/02/08 19:02:29;;;;;;;10.13;5.57;;;;;;;;;;5083191;28;20574;-48
2023/02/08 19:04:55;;;;;;;12.75;5.80;;;;;;;;;;5082883;28;20103;-52
2023/02/08 19:07:21;;;;;;;11.18;5.30;;;;;;;;;;5086391;28;20066;-50
2023/02/08 19:09:48;;;;;;;10.38;6.28;;;;;;;;;;5063873;28;20020;-52
2023/02/08 19:12:14;;;;;;;11.80;7.03;;;;;;;;;;5081112;28;20036;-47
2023/02/08 19:14:41;;;;;;;11.68;6.38;;;;;;;;;;5063576;28;20525;-48
2023/02/08 19:17:08;;;;;;;12.15;6.80;;;;;;;;;;5081095;28;20024;-51
2023/02/08 19:19:34;;;;;;;13.98;7.22;;;;;;;;;;5082725;28;20529;-48
2023/02/08 19:22:00;;;;;;;13.30;6.68;;;;;;;;;;5083021;28;20114;-48
2023/02/08 19:24:26;;;;;;;10.20;5.50;;;;;;;;;;5074513;28;20031;-49
2023/02/08 19:26:52;;;;;;;10.23;5.57;;;;;;;;;;5067200;28;20028;-49
2023/02/08 19:29:21;;;;;;;14.07;7.13;;;;;;;;;;5086179;28;20024;-47
2023/02/08 19:31:47;;;;;;;17.83;7.93;;;;;;;;;;5085481;28;20410;-46
2023/02/08 19:34:13;;;;;;;17.33;7.25;;;;;;;;;;5066916;28;20031;-50
2023/02/08 19:36:42;;;;;;;13.60;6.75;;;;;;;;;;5086412;28;20055;-49
2023/02/08 19:39:12;;;;;;;12.75;6.68;;;;;;;;;;5086960;28;20093;-48
2023/02/08 19:41:38;;;;;;;15.43;6.68;;;;;;;;;;5086270;28;20119;-50
2023/02/08 19:44:06;;;;;;;10.85;5.57;;;;;;;;;;5086264;28;20391;-49
2023/02/08 19:46:33;;;;;;;10.77;5.80;;;;;;;;;;5095771;28;20033;-51
2023/02/08 19:49:00;;;;;;;9.93;5.65;;;;;;;;;;5068639;28;20490;-49
2023/02/08 19:51:31;;;;;;;9.57;5.53;;;;;;;;;;5087304;28;20030;-48
2023/02/08 19:53:59;;;;;;;9.45;5.15;;;;;;;;;;5086978;28;20164;-48
2023/02/08 19:56:27;;;;;;;8.65;5.30;;;;;;;;;;5087065;28;20032;-47